createdAt,value
2023-04-17T00:00:21.927Z,100649.66
2023-04-17T00:00:54.156Z,100649.09
2023-04-17T00:01:26.745Z,100644.53
2023-04-17T00:02:00.768Z,100649.09
2023-04-17T00:02:40.124Z,100653.41
2023-04-17T00:03:12.770Z,100650.16
2023-04-17T00:03:45.208Z,100650.97
2023-04-17T00:04:22.602Z,100653.41
2023-04-17T00:04:55.547Z,100652.59
2023-04-17T00:05:28.177Z,100656.91
2023-04-17T00:06:03.732Z,100651.53
2023-04-17T00:06:35.960Z,100654.47
2023-04-17T00:07:08.151Z,100654.22
2023-04-17T00:07:41.453Z,100660.41
2023-04-17T00:08:16.452Z,100655.25
2023-04-17T00:08:48.670Z,100653.66
2023-04-17T00:09:23.399Z,100661.72
2023-04-17T00:09:58.312Z,100660.06
2023-04-17T00:10:30.619Z,100655.75
2023-04-17T00:11:08.087Z,100658.66
2023-04-17T00:11:43.846Z,100653.56
2023-04-17T00:12:16.275Z,100655.66
2023-04-17T00:12:48.457Z,100657.53
2023-04-17T00:13:23.286Z,100663.72
2023-04-17T00:13:55.566Z,100664.75
2023-04-17T00:14:27.787Z,100661.28
2023-04-17T00:15:02.618Z,100654.03
2023-04-17T00:15:34.878Z,100655.09
2023-04-17T00:16:10.810Z,100660.47
2023-04-17T00:16:45.690Z,100667.72
2023-04-17T00:17:17.983Z,100661.53
2023-04-17T00:17:50.218Z,100659.66
2023-04-17T00:18:22.430Z,100655.34
2023-04-17T00:18:57.615Z,100658.00
2023-04-17T00:19:29.848Z,100658.84
2023-04-17T00:20:02.094Z,100662.56
2023-04-17T00:20:36.857Z,100660.69
2023-04-17T00:21:09.193Z,100659.88
2023-04-17T00:21:41.517Z,100660.69
2023-04-17T00:22:16.328Z,100654.50
2023-04-17T00:22:48.541Z,100659.06
2023-04-17T00:23:20.862Z,100656.38
2023-04-17T00:23:55.723Z,100659.88
2023-04-17T00:24:30.734Z,100660.13
2023-04-17T00:25:02.972Z,100658.50
2023-04-17T00:25:37.862Z,100662.78
2023-04-17T00:26:10.044Z,100664.69
2023-04-17T00:26:43.353Z,100658.25
2023-04-17T00:27:18.286Z,100662.00
2023-04-17T00:27:51.097Z,100654.19
2023-04-17T00:28:24.045Z,100661.41
2023-04-17T00:28:58.816Z,100660.81
2023-04-17T00:29:32.904Z,100665.66
2023-04-17T00:30:07.018Z,100668.31
2023-04-17T00:30:41.877Z,100665.06
2023-04-17T00:31:14.094Z,100662.38
2023-04-17T00:31:46.401Z,100662.38
2023-04-17T00:32:21.195Z,100658.63
2023-04-17T00:32:53.465Z,100664.00
2023-04-17T00:33:25.888Z,100661.31
2023-04-17T00:34:01.786Z,100658.41
2023-04-17T00:34:33.995Z,100651.16
2023-04-17T00:35:07.442Z,100655.47
2023-04-17T00:35:42.678Z,100656.28
2023-04-17T00:36:15.648Z,100652.78
2023-04-17T00:36:47.828Z,100654.41
2023-04-17T00:37:22.808Z,100661.41
2023-04-17T00:37:55.101Z,100661.41
2023-04-17T00:38:27.518Z,100655.00
2023-04-17T00:39:02.369Z,100656.63
2023-04-17T00:39:37.132Z,100655.81
2023-04-17T00:40:10.875Z,100658.50
2023-04-17T00:40:46.447Z,100657.69
2023-04-17T00:41:18.708Z,100662.00
2023-04-17T00:41:51.226Z,100658.50
2023-04-17T00:42:26.071Z,100656.63
2023-04-17T00:43:00.898Z,100663.63
2023-04-17T00:43:33.162Z,100661.75
2023-04-17T00:44:05.572Z,100658.00
2023-04-17T00:44:40.459Z,100659.88
2023-04-17T00:45:12.790Z,100661.53
2023-04-17T00:45:47.072Z,100654.50
2023-04-17T00:46:22.059Z,100661.53
2023-04-17T00:46:54.542Z,100660.69
2023-04-17T00:47:26.836Z,100659.88
2023-04-17T00:48:03.582Z,100662.34
2023-04-17T00:48:37.767Z,100651.00
2023-04-17T00:49:11.383Z,100663.38
2023-04-17T00:49:47.169Z,100659.06
2023-04-17T00:50:19.607Z,100660.38
2023-04-17T00:50:54.056Z,100658.50
2023-04-17T00:51:29.252Z,100655.81
2023-04-17T00:52:01.950Z,100657.69
2023-04-17T00:52:34.408Z,100653.13
2023-04-17T00:53:09.724Z,100658.50
2023-04-17T00:53:42.428Z,100658.75
2023-04-17T00:54:15.136Z,100656.63
2023-04-17T00:54:52.670Z,100658.50
2023-04-17T00:55:25.831Z,100655.00
2023-04-17T00:55:58.885Z,100656.63
2023-04-17T00:56:33.828Z,100660.38
2023-04-17T00:57:06.628Z,100655.81
2023-04-17T00:57:39.006Z,100654.75
2023-04-17T00:58:14.576Z,100655.81
2023-04-17T00:58:47.015Z,100653.97
2023-04-17T00:59:19.451Z,100656.63
2023-04-17T00:59:54.751Z,100655.81
2023-04-17T01:00:27.280Z,100653.97
2023-04-17T01:01:00.292Z,100666.31
2023-04-17T01:01:35.191Z,100652.88
2023-04-17T01:02:07.749Z,100653.13
2023-04-17T01:02:40.212Z,100651.00
2023-04-17T01:03:17.294Z,100649.13
2023-04-17T01:03:51.293Z,100649.38
2023-04-17T01:04:24.159Z,100651.28
2023-04-17T01:04:59.207Z,100651.28
2023-04-17T01:05:31.681Z,100651.50
2023-04-17T01:06:04.043Z,100651.50
2023-04-17T01:06:39.384Z,100654.19
2023-04-17T01:07:11.756Z,100652.53
2023-04-17T01:07:45.596Z,100655.00
2023-04-17T01:08:20.545Z,100647.19
2023-04-17T01:08:54.194Z,100651.50
2023-04-17T01:09:26.513Z,100651.72
2023-04-17T01:10:04.079Z,100649.03
2023-04-17T01:10:36.664Z,100649.31
2023-04-17T01:11:09.066Z,100657.09
2023-04-17T01:11:43.970Z,100651.72
2023-04-17T01:12:17.847Z,100652.53
2023-04-17T01:13:02.212Z,100647.41
2023-04-17T01:13:37.104Z,100646.34
2023-04-17T01:14:09.360Z,100649.03
2023-04-17T01:14:41.679Z,100647.19
2023-04-17T01:15:16.587Z,100646.34
2023-04-17T01:15:48.888Z,100649.03
2023-04-17T01:16:21.215Z,100655.00
2023-04-17T01:16:57.323Z,100648.00
2023-04-17T01:17:29.627Z,100655.00
2023-04-17T01:18:02.206Z,100646.34
2023-04-17T01:18:37.048Z,100655.81
2023-04-17T01:19:09.531Z,100652.31
2023-04-17T01:19:42.307Z,100656.63
2023-04-17T01:20:17.294Z,100657.44
2023-04-17T01:20:49.546Z,100657.44
2023-04-17T01:21:22.383Z,100656.63
2023-04-17T01:21:57.854Z,100650.19
2023-04-17T01:22:30.072Z,100655.81
2023-04-17T01:23:03.813Z,100656.63
2023-04-17T01:23:52.191Z,100654.41
2023-04-17T01:24:27.951Z,100661.66
2023-04-17T01:25:00.238Z,100652.22
2023-04-17T01:25:38.578Z,100653.25
2023-04-17T01:26:18.748Z,100652.22
2023-04-17T01:26:51.414Z,100651.41
2023-04-17T01:27:23.752Z,100649.53
2023-04-17T01:27:58.652Z,100653.84
2023-04-17T01:28:32.651Z,100665.41
2023-04-17T01:29:05.201Z,100664.59
2023-04-17T01:29:40.075Z,100660.81
2023-04-17T01:30:14.109Z,100660.81
2023-04-17T01:30:52.705Z,100656.78
2023-04-17T01:31:29.103Z,100662.97
2023-04-17T01:32:01.825Z,100651.41
2023-04-17T01:32:34.767Z,100660.28
2023-04-17T01:33:09.543Z,100650.59
2023-04-17T01:33:42.405Z,100653.50
2023-04-17T01:34:14.707Z,100655.13
2023-04-17T01:34:49.625Z,100654.31
2023-04-17T01:35:22.191Z,100659.69
2023-04-17T01:35:55.090Z,100653.50
2023-04-17T01:36:30.256Z,100651.06
2023-04-17T01:37:02.949Z,100653.97
2023-04-17T01:37:35.584Z,100649.44
2023-04-17T01:38:10.337Z,100652.72
2023-04-17T01:38:42.763Z,100653.75
2023-04-17T01:39:15.070Z,100651.06
2023-04-17T01:39:52.584Z,100653.50
2023-04-17T01:40:24.911Z,100652.13
2023-04-17T01:40:57.129Z,100653.75
2023-04-17T01:41:29.401Z,100655.38
2023-04-17T01:42:04.276Z,100649.44
2023-04-17T01:42:36.558Z,100650.25
2023-04-17T01:43:08.831Z,100652.72
2023-04-17T01:43:46.435Z,100656.19
2023-04-17T01:44:18.700Z,100651.06
2023-04-17T01:44:51.112Z,100648.38
2023-04-17T01:45:26.510Z,100652.94
2023-04-17T01:45:58.847Z,100643.56
2023-04-17T01:46:31.135Z,100652.44
2023-04-17T01:47:06.182Z,100647.34
2023-04-17T01:47:38.381Z,100644.41
2023-04-17T01:48:10.641Z,100652.44
2023-04-17T01:48:42.977Z,100655.94
2023-04-17T01:49:18.060Z,100653.25
2023-04-17T01:49:50.469Z,100641.72
2023-04-17T01:50:22.765Z,100649.75
2023-04-17T01:50:54.950Z,100651.41
2023-04-17T01:51:29.944Z,100653.25
2023-04-17T01:52:02.135Z,100657.81
2023-04-17T01:52:34.385Z,100647.91
2023-04-17T01:53:09.127Z,100654.09
2023-04-17T01:53:42.268Z,100655.13
2023-04-17T01:54:15.739Z,100651.63
2023-04-17T01:54:53.305Z,100642.75
2023-04-17T01:55:25.614Z,100648.38
2023-04-17T01:55:57.973Z,100645.69
2023-04-17T01:56:32.848Z,100654.31
2023-04-17T01:57:05.189Z,100645.44
2023-04-17T01:57:37.522Z,100651.63
2023-04-17T01:58:12.295Z,100644.41
2023-04-17T01:58:44.486Z,100647.91
2023-04-17T01:59:16.827Z,100653.25
2023-04-17T01:59:51.662Z,100644.41
2023-04-17T02:00:24.258Z,100646.25
2023-04-17T02:00:56.518Z,100645.22
2023-04-17T02:01:28.752Z,100647.91
2023-04-17T02:02:03.876Z,100648.94
2023-04-17T02:02:36.279Z,100645.22
2023-04-17T02:03:08.731Z,100652.22
2023-04-17T02:03:44.062Z,100648.72
2023-04-17T02:04:16.701Z,100650.59
2023-04-17T02:04:48.930Z,100659.44
2023-04-17T02:05:24.050Z,100654.91
2023-04-17T02:05:56.573Z,100653.25
2023-04-17T02:06:28.992Z,100656.78
2023-04-17T02:07:03.861Z,100644.16
2023-04-17T02:07:36.334Z,100653.03
2023-04-17T02:08:08.603Z,100647.66
2023-04-17T02:08:43.346Z,100646.84
2023-04-17T02:09:15.566Z,100655.47
2023-04-17T02:09:50.441Z,100656.19
2023-04-17T02:10:25.283Z,100651.06
2023-04-17T02:10:57.700Z,100648.63
2023-04-17T02:11:30.002Z,100649.44
2023-04-17T02:12:04.780Z,100645.94
2023-04-17T02:12:36.963Z,100657.72
2023-04-17T02:13:09.269Z,100654.25
2023-04-17T02:13:44.090Z,100655.03
2023-04-17T02:14:18.549Z,100657.72
2023-04-17T02:14:50.881Z,100650.75
2023-04-17T02:15:25.751Z,100645.38
2023-04-17T02:15:58.119Z,100650.97
2023-04-17T02:16:37.773Z,100654.69
2023-04-17T02:17:10.005Z,100655.75
2023-04-17T02:17:42.256Z,100652.84
2023-04-17T02:18:16.888Z,100658.44
2023-04-17T02:18:52.351Z,100659.50
2023-04-17T02:19:24.629Z,100655.19
2023-04-17T02:19:56.914Z,100661.38
2023-04-17T02:20:31.678Z,100663.25
2023-04-17T02:21:04.052Z,100649.72
2023-04-17T02:21:36.705Z,100656.22
2023-04-17T02:22:12.957Z,100661.59
2023-04-17T02:22:45.142Z,100656.22
2023-04-17T02:23:17.289Z,100659.97
2023-04-17T02:23:52.123Z,100659.16
2023-04-17T02:24:24.654Z,100658.34
2023-04-17T02:24:59.651Z,100663.72
2023-04-17T02:25:34.564Z,100655.66
2023-04-17T02:26:06.774Z,100656.72
2023-04-17T02:26:39.355Z,100668.50
2023-04-17T02:27:11.964Z,100658.59
2023-04-17T02:27:46.834Z,100665.81
2023-04-17T02:28:19.023Z,100660.44
2023-04-17T02:28:51.290Z,100667.47
2023-04-17T02:29:26.204Z,100659.41
2023-04-17T02:29:58.877Z,100660.22
2023-04-17T02:30:31.327Z,100658.59
2023-04-17T02:31:10.187Z,100671.78
2023-04-17T02:31:42.420Z,100659.63
2023-04-17T02:32:17.432Z,100663.38
2023-04-17T02:32:53.486Z,100664.19
2023-04-17T02:33:26.138Z,100665.22
2023-04-17T02:33:58.597Z,100660.94
2023-04-17T02:34:33.729Z,100655.31
2023-04-17T02:35:08.085Z,100653.94
2023-04-17T02:35:41.563Z,100662.53
2023-04-17T02:36:16.400Z,100654.50
2023-04-17T02:36:50.035Z,100661.75
2023-04-17T02:37:23.799Z,100654.50
2023-04-17T02:37:59.515Z,100658.00
2023-04-17T02:38:33.018Z,100648.34
2023-04-17T02:39:05.707Z,100656.38
2023-04-17T02:39:37.900Z,100664.19
2023-04-17T02:40:15.571Z,100657.75
2023-04-17T02:40:47.776Z,100658.81
2023-04-17T02:41:19.959Z,100667.47
2023-04-17T02:41:55.099Z,100659.63
2023-04-17T02:42:27.281Z,100667.69
2023-04-17T02:42:59.561Z,100666.88
2023-04-17T02:43:34.454Z,100672.22
2023-04-17T02:44:06.668Z,100670.38
2023-04-17T02:44:38.953Z,100666.03
2023-04-17T02:45:14.737Z,100662.53
2023-04-17T02:45:47.008Z,100670.59
2023-04-17T02:46:19.240Z,100671.19
2023-04-17T02:46:54.172Z,100672.22
2023-04-17T02:47:26.683Z,100669.56
2023-04-17T02:47:59.988Z,100669.81
2023-04-17T02:48:35.665Z,100667.91
2023-04-17T02:49:07.896Z,100670.59
2023-04-17T02:49:42.022Z,100677.59
2023-04-17T02:50:14.247Z,100677.38
2023-04-17T02:51:00.921Z,100677.84
2023-04-17T02:51:34.242Z,100673.28
2023-04-17T02:52:06.914Z,100675.97
2023-04-17T02:52:40.186Z,100670.38
2023-04-17T02:53:15.059Z,100676.56
2023-04-17T02:53:49.306Z,100680.28
2023-04-17T02:54:21.997Z,100679.47
2023-04-17T02:54:57.102Z,100679.25
2023-04-17T02:55:32.107Z,100682.75
2023-04-17T02:56:07.658Z,100683.56
2023-04-17T02:56:40.730Z,100683.56
2023-04-17T02:57:13.010Z,100679.00
2023-04-17T02:57:47.867Z,100679.56
2023-04-17T02:58:20.030Z,100682.25
2023-04-17T02:58:55.046Z,100686.56
2023-04-17T02:59:27.454Z,100684.72
2023-04-17T03:00:01.781Z,100683.66
2023-04-17T03:00:38.172Z,100679.34
2023-04-17T03:01:11.161Z,100683.41
2023-04-17T03:01:47.595Z,100685.53
2023-04-17T03:02:25.900Z,100691.72
2023-04-17T03:02:58.408Z,100680.16
2023-04-17T03:03:35.459Z,100686.34
2023-04-17T03:04:13.377Z,100688.34
2023-04-17T03:04:45.630Z,100681.09
2023-04-17T03:05:20.526Z,100687.06
2023-04-17T03:05:55.760Z,100681.44
2023-04-17T03:06:28.671Z,100689.25
2023-04-17T03:07:00.863Z,100683.91
2023-04-17T03:07:36.374Z,100678.53
2023-04-17T03:08:08.724Z,100682.25
2023-04-17T03:08:49.301Z,100685.19
2023-04-17T03:09:25.115Z,100686.81
2023-04-17T03:09:57.779Z,100678.19
2023-04-17T03:10:32.698Z,100684.94
2023-04-17T03:11:08.304Z,100686.00
2023-04-17T03:11:40.651Z,100681.69
2023-04-17T03:12:12.902Z,100678.41
2023-04-17T03:12:47.912Z,100684.59
2023-04-17T03:13:20.192Z,100684.00
2023-04-17T03:13:52.372Z,100688.34
2023-04-17T03:14:27.220Z,100681.91
2023-04-17T03:14:59.411Z,100688.09
2023-04-17T03:15:31.725Z,100684.59
2023-04-17T03:16:07.611Z,100687.06
2023-04-17T03:16:42.773Z,100685.19
2023-04-17T03:17:16.972Z,100685.19
2023-04-17T03:17:52.976Z,100686.81
2023-04-17T03:18:25.412Z,100692.75
2023-04-17T03:18:57.694Z,100690.09
2023-04-17T03:19:32.505Z,100687.16
2023-04-17T03:20:07.725Z,100690.66
2023-04-17T03:20:40.157Z,100687.97
2023-04-17T03:21:15.080Z,100688.56
2023-04-17T03:21:47.488Z,100688.56
2023-04-17T03:22:19.703Z,100695.78
2023-04-17T03:22:55.927Z,100695.78
2023-04-17T03:23:28.145Z,100694.97
2023-04-17T03:24:00.363Z,100694.97
2023-04-17T03:24:33.170Z,100698.25
2023-04-17T03:25:10.144Z,100691.00
2023-04-17T03:25:52.633Z,100693.91
2023-04-17T03:26:25.689Z,100695.56
2023-04-17T03:27:01.019Z,100692.63
2023-04-17T03:27:36.863Z,100701.50
2023-04-17T03:28:11.822Z,100696.94
2023-04-17T03:28:44.452Z,100703.13
2023-04-17T03:29:16.644Z,100694.59
2023-04-17T03:29:51.420Z,100702.41
2023-04-17T03:30:24.416Z,100697.03
2023-04-17T03:30:59.705Z,100698.41
2023-04-17T03:31:34.664Z,100698.69
2023-04-17T03:32:07.116Z,100697.63
2023-04-17T03:32:39.492Z,100700.31
2023-04-17T03:33:14.298Z,100701.91
2023-04-17T03:33:46.536Z,100694.69
2023-04-17T03:34:19.492Z,100699.25
2023-04-17T03:34:54.371Z,100703.78
2023-04-17T03:35:26.580Z,100701.09
2023-04-17T03:36:01.508Z,100699.25
2023-04-17T03:36:36.515Z,100706.25
2023-04-17T03:37:09.490Z,100692.81
2023-04-17T03:37:41.803Z,100710.56
2023-04-17T03:38:14.043Z,100708.69
2023-04-17T03:38:49.897Z,100712.22
2023-04-17T03:39:22.572Z,100695.03
2023-04-17T03:39:55.807Z,100705.75
2023-04-17T03:40:33.793Z,100711.13
2023-04-17T03:41:08.874Z,100697.69
2023-04-17T03:41:41.192Z,100705.75
2023-04-17T03:42:16.692Z,100715.72
2023-04-17T03:42:49.615Z,100714.63
2023-04-17T03:43:21.911Z,100709.03
2023-04-17T03:43:56.722Z,100704.47
2023-04-17T03:44:28.976Z,100709.03
2023-04-17T03:45:01.133Z,100706.13
2023-04-17T03:45:34.216Z,100713.09
2023-04-17T03:46:09.397Z,100718.47
2023-04-17T03:46:42.622Z,100718.47
2023-04-17T03:47:14.970Z,100718.47
2023-04-17T03:47:50.593Z,100714.19
2023-04-17T03:48:23.278Z,100715.22
2023-04-17T03:48:56.367Z,100718.72
2023-04-17T03:49:31.480Z,100720.38
2023-04-17T03:50:05.195Z,100714.19
2023-04-17T03:50:44.763Z,100721.97
2023-04-17T03:51:17.843Z,100711.50
2023-04-17T03:51:50.868Z,100708.53
2023-04-17T03:52:28.543Z,100716.59
2023-04-17T03:53:03.337Z,100715.00
2023-04-17T03:53:36.756Z,100711.00
2023-04-17T03:54:14.851Z,100720.09
2023-04-17T03:54:49.225Z,100715.00
2023-04-17T03:55:22.040Z,100727.13
2023-04-17T03:55:57.498Z,100714.75
2023-04-17T03:56:39.482Z,100723.84
2023-04-17T03:57:14.457Z,100717.44
2023-04-17T03:57:48.656Z,100719.06
2023-04-17T03:58:20.930Z,100718.25
2023-04-17T03:58:56.966Z,100724.44
2023-04-17T03:59:30.794Z,100727.13
2023-04-17T04:00:03.186Z,100727.13
2023-04-17T04:00:55.587Z,100713.09
2023-04-17T04:01:32.991Z,100718.72
2023-04-17T04:02:18.753Z,100725.97
2023-04-17T04:02:51.341Z,100722.22
2023-04-17T04:03:29.303Z,100720.59
2023-04-17T04:04:05.867Z,100722.22
2023-04-17T04:04:38.288Z,100716.88
2023-04-17T04:05:15.995Z,100716.88
2023-04-17T04:05:51.354Z,100715.78
2023-04-17T04:06:23.600Z,100717.44
2023-04-17T04:06:58.066Z,100720.09
2023-04-17T04:07:34.323Z,100706.44
2023-04-17T04:08:06.617Z,100711.81
2023-04-17T04:08:45.620Z,100706.44
2023-04-17T04:09:20.526Z,100711.59
2023-04-17T04:09:52.995Z,100698.97
2023-04-17T04:10:25.318Z,100715.88
2023-04-17T04:11:00.878Z,100721.25
2023-04-17T04:11:42.617Z,100713.47
2023-04-17T04:12:17.927Z,100719.66
2023-04-17T04:12:51.376Z,100712.38
2023-04-17T04:13:23.678Z,100714.84
2023-04-17T04:14:05.020Z,100713.19
2023-04-17T04:14:40.378Z,100713.19
2023-04-17T04:15:14.341Z,100714.03
2023-04-17T04:15:49.583Z,100716.47
2023-04-17T04:16:24.703Z,100711.94
2023-04-17T04:17:03.714Z,100714.59
2023-04-17T04:17:38.525Z,100718.94
2023-04-17T04:18:11.280Z,100717.03
2023-04-17T04:18:43.655Z,100716.81
2023-04-17T04:19:19.532Z,100717.63
2023-04-17T04:19:52.468Z,100717.63
2023-04-17T04:20:25.064Z,100720.31
2023-04-17T04:21:07.292Z,100719.50
2023-04-17T04:21:43.716Z,100720.31
2023-04-17T04:22:18.788Z,100722.19
2023-04-17T04:22:59.535Z,100713.91
2023-04-17T04:23:34.003Z,100719.25
2023-04-17T04:24:08.730Z,100717.41
2023-04-17T04:24:44.742Z,100729.75
2023-04-17T04:25:20.588Z,100724.16
2023-04-17T04:26:08.128Z,100722.78
2023-04-17T04:26:53.429Z,100724.38
2023-04-17T04:27:27.822Z,100740.50
2023-04-17T04:28:02.440Z,100725.19
2023-04-17T04:28:39.053Z,100727.06
2023-04-17T04:29:14.912Z,100726.84
2023-04-17T04:30:01.973Z,100732.22
2023-04-17T04:30:39.165Z,100724.75
2023-04-17T04:31:19.453Z,100734.66
2023-04-17T04:31:55.796Z,100729.03
2023-04-17T04:32:31.028Z,100723.66
2023-04-17T04:33:03.527Z,100729.63
2023-04-17T04:33:38.810Z,100727.75
2023-04-17T04:34:11.283Z,100731.25
2023-04-17T04:34:45.168Z,100729.13
2023-04-17T04:35:20.548Z,100723.53
2023-04-17T04:35:56.253Z,100732.41
2023-04-17T04:36:30.313Z,100733.22
2023-04-17T04:37:30.132Z,100732.88
2023-04-17T04:38:06.317Z,100730.19
2023-04-17T04:38:39.500Z,100729.13
2023-04-17T04:39:30.233Z,100727.50
2023-04-17T04:40:10.670Z,100737.19
2023-04-17T04:40:52.690Z,100726.44
2023-04-17T04:41:27.510Z,100729.94
2023-04-17T04:42:06.316Z,100731.59
2023-04-17T04:42:52.301Z,100735.31
2023-04-17T04:43:29.402Z,100728.09
2023-04-17T04:44:01.768Z,100734.03
2023-04-17T04:44:37.342Z,100734.59
2023-04-17T04:45:11.121Z,100737.06
2023-04-17T04:45:43.342Z,100738.09
2023-04-17T04:46:18.887Z,100736.00
2023-04-17T04:46:55.776Z,100737.88
2023-04-17T04:47:28.310Z,100736.81
2023-04-17T04:48:03.492Z,100736.56
2023-04-17T04:48:36.056Z,100735.75
2023-04-17T04:49:11.005Z,100742.75
2023-04-17T04:49:43.392Z,100736.34
2023-04-17T04:50:17.829Z,100743.34
2023-04-17T04:50:50.555Z,100745.53
2023-04-17T04:51:27.034Z,100738.75
2023-04-17T04:51:59.887Z,100735.03
2023-04-17T04:52:37.479Z,100734.22
2023-04-17T04:53:19.980Z,100729.66
2023-04-17T04:54:00.146Z,100736.66
2023-04-17T04:54:32.628Z,100742.59
2023-04-17T04:55:10.048Z,100738.03
2023-04-17T04:55:49.815Z,100737.22
2023-04-17T04:56:23.243Z,100735.34
2023-04-17T04:56:58.372Z,100733.25
2023-04-17T04:57:33.314Z,100736.75
2023-04-17T04:58:07.427Z,100734.91
2023-04-17T04:58:41.035Z,100730.34
2023-04-17T04:59:17.072Z,100742.69
2023-04-17T04:59:55.853Z,100738.97
2023-04-17T05:00:42.185Z,100733.81
2023-04-17T05:01:21.286Z,100732.78
2023-04-17T05:01:55.198Z,100738.72
2023-04-17T05:02:29.158Z,100743.84
2023-04-17T05:03:01.681Z,100738.22
2023-04-17T05:03:37.735Z,100737.19
2023-04-17T05:04:11.382Z,100734.50
2023-04-17T05:04:44.264Z,100738.00
2023-04-17T05:05:16.551Z,100741.50
2023-04-17T05:05:51.351Z,100739.38
2023-04-17T05:06:25.300Z,100734.00
2023-04-17T05:07:05.199Z,100736.69
2023-04-17T05:07:41.939Z,100727.81
2023-04-17T05:08:17.639Z,100742.06
2023-04-17T05:09:01.142Z,100738.56
2023-04-17T05:09:33.862Z,100735.88
2023-04-17T05:10:07.123Z,100744.53
2023-04-17T05:10:46.244Z,100741.59
2023-04-17T05:11:19.700Z,100742.66
2023-04-17T05:11:55.253Z,100740.53
2023-04-17T05:12:27.805Z,100735.66
2023-04-17T05:13:05.235Z,100737.03
2023-04-17T05:13:37.800Z,100748.03
2023-04-17T05:14:10.735Z,100748.59
2023-04-17T05:14:48.055Z,100746.72
2023-04-17T05:15:23.683Z,100746.97
2023-04-17T05:15:56.079Z,100746.50
2023-04-17T05:16:34.571Z,100737.84
2023-04-17T05:17:07.437Z,100744.84
2023-04-17T05:17:39.718Z,100747.88
2023-04-17T05:18:14.840Z,100744.34
2023-04-17T05:18:48.319Z,100746.00
2023-04-17T05:19:24.748Z,100753.00
2023-04-17T05:20:07.020Z,100743.91
2023-04-17T05:20:41.669Z,100744.94
2023-04-17T05:21:16.974Z,100748.19
2023-04-17T05:21:50.596Z,100751.69
2023-04-17T05:22:25.259Z,100752.50
2023-04-17T05:23:11.100Z,100757.06
2023-04-17T05:23:43.410Z,100758.50
2023-04-17T05:24:16.541Z,100753.94
2023-04-17T05:24:51.300Z,100757.19
2023-04-17T05:25:23.862Z,100749.94
2023-04-17T05:25:57.046Z,100747.25
2023-04-17T05:26:32.289Z,100747.03
2023-04-17T05:27:04.583Z,100750.28
2023-04-17T05:27:37.010Z,100752.97
2023-04-17T05:28:16.666Z,100759.97
2023-04-17T05:28:49.324Z,100752.41
2023-04-17T05:29:27.611Z,100753.22
2023-04-17T05:30:03.662Z,100753.22
2023-04-17T05:30:36.684Z,100754.81
2023-04-17T05:31:19.583Z,100761.03
2023-04-17T05:31:55.071Z,100758.09
2023-04-17T05:32:46.659Z,100755.66
2023-04-17T05:33:47.444Z,100760.69
2023-04-17T05:34:19.666Z,100759.66
2023-04-17T05:34:52.552Z,100768.28
2023-04-17T05:35:31.384Z,100759.75
2023-04-17T05:36:04.995Z,100766.50
2023-04-17T05:36:43.202Z,100764.63
2023-04-17T05:37:15.487Z,100769.50
2023-04-17T05:37:47.908Z,100766.59
2023-04-17T05:38:22.694Z,100763.66
2023-04-17T05:38:54.904Z,100769.59
2023-04-17T05:39:27.568Z,100761.84
2023-04-17T05:40:02.733Z,100772.38
2023-04-17T05:40:35.285Z,100778.56
2023-04-17T05:41:08.615Z,100772.13
2023-04-17T05:41:45.198Z,100773.19
2023-04-17T05:42:17.468Z,100767.59
2023-04-17T05:42:49.694Z,100772.47
2023-04-17T05:43:27.176Z,100773.84
2023-04-17T05:44:00.419Z,100774.41
2023-04-17T05:44:33.115Z,100767.50
2023-04-17T05:45:08.709Z,100767.81
2023-04-17T05:45:41.865Z,100779.47
2023-04-17T05:46:14.963Z,100770.09
2023-04-17T05:46:51.468Z,100774.72
2023-04-17T05:47:23.760Z,100773.19
2023-04-17T05:47:55.984Z,100773.25
2023-04-17T05:48:31.426Z,100770.91
2023-04-17T05:49:03.771Z,100774.97
2023-04-17T05:49:36.398Z,100769.09
2023-04-17T05:50:11.957Z,100771.03
2023-04-17T05:50:44.436Z,100774.88
2023-04-17T05:51:19.408Z,100772.75
2023-04-17T05:51:51.845Z,100776.56
2023-04-17T05:52:24.193Z,100769.63
2023-04-17T05:52:57.108Z,100768.06
2023-04-17T05:53:36.252Z,100773.75
2023-04-17T05:54:08.953Z,100765.44
2023-04-17T05:54:42.258Z,100768.44
2023-04-17T05:55:17.220Z,100766.56
2023-04-17T05:55:49.582Z,100754.00
2023-04-17T05:56:24.421Z,100766.72
2023-04-17T05:56:56.993Z,100762.47
2023-04-17T05:57:29.512Z,100766.78
2023-04-17T05:58:16.891Z,100773.53
2023-04-17T05:58:58.315Z,100773.28
2023-04-17T05:59:30.733Z,100777.94
2023-04-17T06:00:13.206Z,100773.91
2023-04-17T06:00:52.614Z,100769.91
2023-04-17T06:01:30.343Z,100769.41
2023-04-17T06:02:03.263Z,100777.78
2023-04-17T06:02:38.220Z,100777.31
2023-04-17T06:03:14.073Z,100777.63
2023-04-17T06:03:48.319Z,100777.94
2023-04-17T06:04:27.068Z,100768.50
2023-04-17T06:05:02.228Z,100780.72
2023-04-17T06:05:34.706Z,100774.47
2023-04-17T06:06:07.179Z,100775.31
2023-04-17T06:06:41.967Z,100770.97
2023-04-17T06:07:14.403Z,100777.41
2023-04-17T06:07:50.416Z,100773.91
2023-04-17T06:08:22.687Z,100776.59
2023-04-17T06:08:55.071Z,100777.41
2023-04-17T06:09:31.465Z,100783.41
2023-04-17T06:10:04.090Z,100775.31
2023-04-17T06:10:36.971Z,100777.78
2023-04-17T06:11:12.038Z,100772.13
2023-04-17T06:11:44.316Z,100778.31
2023-04-17T06:12:19.999Z,100775.38
2023-04-17T06:12:52.457Z,100776.19
2023-04-17T06:13:24.824Z,100783.19
2023-04-17T06:14:02.762Z,100778.63
2023-04-17T06:14:35.042Z,100772.41
2023-04-17T06:15:14.702Z,100781.09
2023-04-17T06:15:47.090Z,100777.06
2023-04-17T06:16:22.885Z,100778.69
2023-04-17T06:16:55.353Z,100777.63
2023-04-17T06:17:30.224Z,100781.97
2023-04-17T06:18:02.498Z,100778.44
2023-04-17T06:18:34.770Z,100776.56
2023-04-17T06:19:09.716Z,100776.56
2023-04-17T06:19:42.011Z,100776.56
2023-04-17T06:20:14.273Z,100780.91
2023-04-17T06:20:49.540Z,100782.50
2023-04-17T06:21:22.604Z,100779.81
2023-04-17T06:21:55.225Z,100783.06
2023-04-17T06:22:30.206Z,100784.97
2023-04-17T06:23:02.697Z,100784.72
2023-04-17T06:23:35.028Z,100781.75
2023-04-17T06:24:11.585Z,100781.25
2023-04-17T06:24:49.419Z,100788.00
2023-04-17T06:25:24.609Z,100783.97
2023-04-17T06:25:57.048Z,100785.38
2023-04-17T06:26:29.323Z,100794.00
2023-04-17T06:27:04.220Z,100787.56
2023-04-17T06:27:37.327Z,100784.38
2023-04-17T06:28:10.524Z,100780.03
2023-04-17T06:28:45.412Z,100784.91
2023-04-17T06:29:20.663Z,100782.22
2023-04-17T06:29:56.162Z,100784.66
2023-04-17T06:30:28.493Z,100786.31
2023-04-17T06:31:02.569Z,100772.25
2023-04-17T06:31:37.575Z,100777.63
2023-04-17T06:32:09.834Z,100789.25
2023-04-17T06:32:46.353Z,100781.16
2023-04-17T06:33:18.732Z,100790.59
2023-04-17T06:33:53.678Z,100788.47
2023-04-17T06:34:30.325Z,100784.72